Terminal Aerodrome Forecast
Issued by NWS

Home | Current Version | Previous Version | Text Only | Print | Product List | Glossary On
Versions: 1 2 3 4 5 6 7 8 9 10 11 12 13 14 15
638
FTUS46 KHNX 110545
TAFMCE
TAF
KMCE 110545Z 1106/1206 11006KT P6SM SCT020 OVC035
     FM110900 12003KT 4SM BR OVC015
     FM111200 35002KT 2SM BR OVC007
      TEMPO 1112/1116 1/2SM FG OVC004
     FM111900 31006KT 3SM BR BKN007
     FM112100 33005KT 4SM HZ BKN200=

USA.gov is the U.S. government's official web portal to all federal, state and local government web resources and services.